createdAt,value
2023-07-16T00:00:57.408Z,99123.13
2023-07-16T00:05:59.700Z,99182.75
2023-07-16T00:11:01.992Z,99149.25
2023-07-16T00:16:04.524Z,99128.66
2023-07-16T00:21:06.815Z,99200.16
2023-07-16T00:26:09.106Z,99138.78
2023-07-16T00:31:12.064Z,99170.81
2023-07-16T00:36:14.672Z,99169.28
2023-07-16T00:41:17.339Z,99069.25
2023-07-16T00:46:19.863Z,99145.75
2023-07-16T00:51:23.889Z,99189.44
2023-07-16T00:56:26.909Z,99124.38
2023-07-16T01:01:29.512Z,99170.00
2023-07-16T01:06:41.055Z,99152.06
2023-07-16T01:11:45.108Z,99211.84
2023-07-16T01:16:47.588Z,99198.91
2023-07-16T01:21:52.782Z,99208.59
2023-07-16T01:27:16.012Z,99184.53
2023-07-16T01:32:19.261Z,99166.44
2023-07-16T01:37:21.923Z,99169.72
2023-07-16T01:42:24.274Z,99210.81
2023-07-16T01:48:00.268Z,99225.09
2023-07-16T01:53:02.636Z,99206.06
2023-07-16T01:58:06.662Z,99300.31
2023-07-16T02:03:09.341Z,99171.91
2023-07-16T02:08:12.023Z,99223.47
2023-07-16T02:13:14.389Z,99147.75
2023-07-16T02:18:16.710Z,99201.53
2023-07-16T02:23:19.031Z,99134.63
2023-07-16T02:28:21.303Z,99179.63
2023-07-16T02:33:23.678Z,99191.78
2023-07-16T02:38:25.945Z,99244.00
2023-07-16T02:43:28.322Z,99165.69
2023-07-16T02:48:30.577Z,99155.63
2023-07-16T02:53:32.768Z,99185.81
2023-07-16T02:58:35.019Z,99246.50
2023-07-16T03:03:37.303Z,99258.00
2023-07-16T03:08:39.599Z,99183.03
2023-07-16T03:13:41.880Z,99157.34
2023-07-16T03:18:46.556Z,99196.63
2023-07-16T03:23:48.858Z,99142.66
2023-07-16T03:28:51.353Z,99101.72
2023-07-16T03:33:54.139Z,99076.97
2023-07-16T03:38:58.161Z,99218.44
2023-07-16T03:44:00.524Z,99264.06
2023-07-16T03:49:02.859Z,99182.56
2023-07-16T03:54:05.177Z,99149.63
2023-07-16T03:59:08.999Z,99213.84
2023-07-16T04:04:11.406Z,99289.34
2023-07-16T04:09:14.223Z,99248.16
2023-07-16T04:14:16.486Z,99258.53
2023-07-16T04:19:18.903Z,99279.19
2023-07-16T04:24:21.210Z,99226.75
2023-07-16T04:29:23.869Z,99344.94
2023-07-16T04:34:26.195Z,99241.09
2023-07-16T04:39:28.445Z,99238.78
2023-07-16T04:44:30.731Z,99242.78
2023-07-16T04:49:35.548Z,99244.25
2023-07-16T04:54:39.099Z,99282.41
2023-07-16T04:59:41.409Z,99289.91
2023-07-16T05:04:45.229Z,99245.03
2023-07-16T05:09:47.503Z,99224.47
2023-07-16T05:14:50.877Z,99174.59
2023-07-16T05:19:53.238Z,99344.78
2023-07-16T05:24:55.477Z,99386.44
2023-07-16T05:29:57.900Z,99203.75
2023-07-16T05:35:03.126Z,99171.91
2023-07-16T05:40:09.727Z,99349.06
2023-07-16T05:45:12.132Z,99284.13
2023-07-16T05:50:16.656Z,99343.25
2023-07-16T05:55:19.479Z,99355.41
2023-07-16T06:00:21.850Z,99270.88
2023-07-16T06:05:25.728Z,99323.16
2023-07-16T06:10:28.344Z,99338.59
2023-07-16T06:15:30.633Z,99292.09
2023-07-16T06:20:32.925Z,99341.34
2023-07-16T06:25:35.170Z,99259.28
2023-07-16T06:30:38.113Z,99327.59
2023-07-16T06:35:40.433Z,99357.34
2023-07-16T06:40:50.424Z,99297.03
2023-07-16T06:45:52.923Z,99255.28
2023-07-16T06:50:55.214Z,99292.34
2023-07-16T06:55:57.463Z,99342.31
2023-07-16T07:00:59.844Z,99388.53
2023-07-16T07:06:05.302Z,99314.06
2023-07-16T07:11:07.574Z,99285.03
2023-07-16T07:16:09.777Z,99288.22
2023-07-16T07:21:12.102Z,99314.56
2023-07-16T07:26:14.564Z,99267.50
2023-07-16T07:31:16.916Z,99350.41
2023-07-16T07:36:19.623Z,99301.91
2023-07-16T07:41:22.043Z,99355.53
2023-07-16T07:46:24.351Z,99315.06
2023-07-16T07:51:26.705Z,99358.94
2023-07-16T07:56:29.077Z,99358.50
2023-07-16T08:01:32.086Z,99305.66
2023-07-16T08:06:34.383Z,99349.81
2023-07-16T08:11:36.658Z,99323.78
2023-07-16T08:16:39.003Z,99263.69
2023-07-16T08:21:41.164Z,99261.56
2023-07-16T08:26:43.461Z,99323.09
2023-07-16T08:31:45.711Z,99383.66
2023-07-16T08:36:48.006Z,99327.88
2023-07-16T08:41:50.163Z,99344.63
2023-07-16T08:46:53.489Z,99318.41
2023-07-16T08:51:56.683Z,99368.69
2023-07-16T08:56:58.990Z,99407.81
2023-07-16T09:02:01.401Z,99358.09
2023-07-16T09:07:03.791Z,99372.81
2023-07-16T09:12:06.833Z,99274.28
2023-07-16T09:17:09.482Z,99227.38
2023-07-16T09:22:11.774Z,99314.81
2023-07-16T09:27:15.016Z,99302.41
2023-07-16T09:32:17.323Z,99256.91
2023-07-16T09:37:20.891Z,99313.72
2023-07-16T09:42:25.730Z,99254.72
2023-07-16T09:47:28.051Z,99282.41
2023-07-16T09:52:30.586Z,99305.41
2023-07-16T09:57:38.490Z,99273.94
2023-07-16T10:02:42.169Z,99286.06
2023-07-16T10:07:52.191Z,99285.56
2023-07-16T10:13:04.305Z,99315.53
2023-07-16T10:18:06.626Z,99337.41
2023-07-16T10:23:14.794Z,99337.09
2023-07-16T10:28:17.010Z,99356.09
2023-07-16T10:33:19.376Z,99390.22
2023-07-16T10:38:21.724Z,99294.03
2023-07-16T10:43:26.231Z,99339.50
2023-07-16T10:48:28.530Z,99314.72
2023-07-16T10:53:30.744Z,99278.00
2023-07-16T10:58:32.943Z,99354.56
2023-07-16T11:03:36.798Z,99363.25
2023-07-16T11:08:39.421Z,99274.41
2023-07-16T11:13:41.656Z,99233.81
2023-07-16T11:18:45.199Z,99358.88
2023-07-16T11:23:47.548Z,99337.44
2023-07-16T11:28:52.583Z,99277.69
2023-07-16T11:33:54.896Z,99260.00
2023-07-16T11:38:57.232Z,99315.25
2023-07-16T11:44:02.980Z,99308.75
2023-07-16T11:49:05.272Z,99259.47
2023-07-16T11:54:07.544Z,99305.06
2023-07-16T11:59:10.940Z,99274.50
2023-07-16T12:04:15.080Z,99349.44
2023-07-16T12:09:17.428Z,99240.84
2023-07-16T12:14:19.662Z,99284.56
2023-07-16T12:19:22.100Z,99244.56
2023-07-16T12:24:24.337Z,99311.41
2023-07-16T12:29:26.543Z,99229.00
2023-07-16T12:34:28.759Z,99310.47
2023-07-16T12:39:31.093Z,99320.28
2023-07-16T12:44:33.378Z,99272.84
2023-07-16T12:49:36.398Z,99258.19
2023-07-16T12:54:38.731Z,99300.09
2023-07-16T12:59:41.037Z,99314.81
2023-07-16T13:04:43.742Z,99295.09
2023-07-16T13:09:46.018Z,99285.56
2023-07-16T13:14:48.201Z,99241.81
2023-07-16T13:19:50.343Z,99279.56
2023-07-16T13:24:52.616Z,99252.41
2023-07-16T13:29:54.768Z,99293.16
2023-07-16T13:34:57.022Z,99266.06
2023-07-16T13:39:59.294Z,99270.50
2023-07-16T13:45:01.524Z,99229.59
2023-07-16T13:50:03.957Z,99205.59
2023-07-16T13:55:07.318Z,99232.13
2023-07-16T14:00:13.325Z,99184.75
2023-07-16T14:05:15.678Z,99206.09
2023-07-16T14:10:17.991Z,99204.03
2023-07-16T14:15:20.422Z,99183.28
2023-07-16T14:20:22.663Z,99209.34
2023-07-16T14:25:24.908Z,99188.69
2023-07-16T14:30:27.171Z,99181.41
2023-07-16T14:35:36.476Z,99204.97
2023-07-16T14:40:40.363Z,99182.03
2023-07-16T14:45:42.777Z,99170.84
2023-07-16T14:50:45.039Z,99166.88
2023-07-16T14:55:51.612Z,99207.31
2023-07-16T15:00:53.889Z,99206.31
2023-07-16T15:06:02.331Z,99167.19
2023-07-16T15:11:05.247Z,99224.50
2023-07-16T15:16:08.643Z,99182.03
2023-07-16T15:21:11.191Z,99154.28
2023-07-16T15:26:14.445Z,99084.88
2023-07-16T15:31:17.115Z,99159.97
2023-07-16T15:36:19.714Z,99161.94
2023-07-16T15:41:26.398Z,99114.97
2023-07-16T15:46:29.246Z,99174.66
2023-07-16T15:51:31.783Z,99118.22
2023-07-16T15:56:34.129Z,99106.91
2023-07-16T16:01:36.445Z,99090.06
2023-07-16T16:06:40.026Z,99086.16
2023-07-16T16:11:42.396Z,99072.84
2023-07-16T16:16:57.047Z,99121.53
2023-07-16T16:22:06.976Z,99103.75
2023-07-16T16:27:09.658Z,99109.28
2023-07-16T16:32:11.852Z,99152.84
2023-07-16T16:37:13.996Z,99096.63
2023-07-16T16:42:16.342Z,99063.94
2023-07-16T16:47:18.846Z,99111.28
2023-07-16T16:52:21.120Z,99106.97
2023-07-16T16:57:23.455Z,99115.72
2023-07-16T17:02:25.902Z,99049.16
2023-07-16T17:07:28.079Z,99043.72
2023-07-16T17:12:30.335Z,99029.59
2023-07-16T17:17:32.619Z,99062.63
2023-07-16T17:22:34.932Z,99011.69
2023-07-16T17:27:40.673Z,99056.66
2023-07-16T17:32:42.870Z,99055.84
2023-07-16T17:37:45.586Z,99101.44
2023-07-16T17:42:51.463Z,99071.38
2023-07-16T17:47:55.699Z,99096.84
2023-07-16T17:53:03.604Z,99072.84
2023-07-16T17:58:06.711Z,99109.66
2023-07-16T18:03:09.547Z,99075.41
2023-07-16T18:08:11.917Z,99104.19
2023-07-16T18:13:14.143Z,99044.78
2023-07-16T18:18:16.412Z,99112.50
2023-07-16T18:23:19.297Z,99109.84
2023-07-16T18:28:22.156Z,99102.34
2023-07-16T18:33:24.710Z,99082.97
2023-07-16T18:38:27.170Z,99079.25
2023-07-16T18:43:30.316Z,99111.78
2023-07-16T18:48:33.224Z,99072.69
2023-07-16T18:53:36.642Z,99079.41
2023-07-16T18:58:38.937Z,99133.34
2023-07-16T19:03:41.242Z,99163.19
2023-07-16T19:08:43.463Z,99134.59
2023-07-16T19:13:45.625Z,99141.31
2023-07-16T19:18:48.384Z,99125.22
2023-07-16T19:23:50.571Z,99101.44
2023-07-16T19:28:54.599Z,99131.09
2023-07-16T19:33:56.793Z,99168.88
2023-07-16T19:38:58.974Z,99142.53
2023-07-16T19:44:01.559Z,99173.13
2023-07-16T19:49:05.206Z,99160.88
2023-07-16T19:54:08.198Z,99200.41
2023-07-16T19:59:10.578Z,99113.75
2023-07-16T20:04:12.881Z,99132.94
2023-07-16T20:09:15.921Z,99210.72
2023-07-16T20:14:18.214Z,99164.00
2023-07-16T20:19:20.754Z,99161.88
2023-07-16T20:24:22.949Z,99175.03
2023-07-16T20:29:25.121Z,99177.53
2023-07-16T20:34:28.010Z,99195.25
2023-07-16T20:39:31.196Z,99173.53
2023-07-16T20:44:33.366Z,99150.75
2023-07-16T20:49:38.011Z,99184.53
2023-07-16T20:54:40.194Z,99264.69
2023-07-16T20:59:43.566Z,99259.06
2023-07-16T21:04:46.142Z,99285.63
2023-07-16T21:09:48.387Z,99196.19
2023-07-16T21:14:50.723Z,99274.09
2023-07-16T21:19:54.206Z,99274.88
2023-07-16T21:24:57.826Z,99239.25
2023-07-16T21:30:00.238Z,99204.94
2023-07-16T21:35:02.476Z,99283.97
2023-07-16T21:40:05.612Z,99254.78
2023-07-16T21:45:08.878Z,99181.13
2023-07-16T21:50:11.991Z,99258.25
2023-07-16T21:55:14.329Z,99220.34
2023-07-16T22:00:18.302Z,99186.03
2023-07-16T22:05:20.682Z,99189.97
2023-07-16T22:10:23.066Z,99183.97
2023-07-16T22:15:25.429Z,99239.59
2023-07-16T22:20:28.405Z,99244.44
2023-07-16T22:25:30.697Z,99271.44
2023-07-16T22:30:32.986Z,99281.75
2023-07-16T22:35:35.184Z,99196.13
2023-07-16T22:40:37.532Z,99205.97
2023-07-16T22:45:42.331Z,99177.50
2023-07-16T22:50:45.940Z,99205.75
2023-07-16T22:55:49.447Z,99222.31
2023-07-16T23:00:51.815Z,99260.16
2023-07-16T23:05:54.231Z,99276.00
2023-07-16T23:10:57.263Z,99161.09
2023-07-16T23:16:00.359Z,99311.50
2023-07-16T23:21:02.731Z,99342.88
2023-07-16T23:31:42.699Z,99248.72
2023-07-16T23:36:44.866Z,99254.75
2023-07-16T23:41:47.046Z,99291.78
2023-07-16T23:46:49.313Z,99304.09
2023-07-16T23:51:51.693Z,99282.03
2023-07-16T23:56:54.157Z,99289.84
